sensor_id;sensor_type;location;lat;lon;timestamp;P1;durP1;ratioP1;P2;durP2;ratioP2
36653;SDS011;22650;49.350;20.898;2023-03-01T00:01:43;95.65;;;33.95;;
36653;SDS011;22650;49.350;20.898;2023-03-01T00:04:16;88.43;;;31.75;;
36653;SDS011;22650;49.350;20.898;2023-03-01T00:06:50;71.78;;;29.35;;
36653;SDS011;22650;49.350;20.898;2023-03-01T00:09:25;85.10;;;30.45;;
36653;SDS011;22650;49.350;20.898;2023-03-01T00:11:59;77.43;;;30.92;;
36653;SDS011;22650;49.350;20.898;2023-03-01T00:14:32;84.43;;;29.38;;
36653;SDS011;22650;49.350;20.898;2023-03-01T00:17:06;61.53;;;26.42;;
36653;SDS011;22650;49.350;20.898;2023-03-01T00:19:39;71.63;;;26.30;;
36653;SDS011;22650;49.350;20.898;2023-03-01T00:22:13;75.53;;;26.48;;
36653;SDS011;22650;49.350;20.898;2023-03-01T00:24:48;64.90;;;23.42;;
36653;SDS011;22650;49.350;20.898;2023-03-01T00:27:21;79.90;;;27.88;;
36653;SDS011;22650;49.350;20.898;2023-03-01T00:29:55;64.35;;;25.63;;
36653;SDS011;22650;49.350;20.898;2023-03-01T00:32:29;76.50;;;25.70;;
36653;SDS011;22650;49.350;20.898;2023-03-01T00:35:03;55.65;;;23.30;;
36653;SDS011;22650;49.350;20.898;2023-03-01T00:37:37;67.95;;;27.20;;
36653;SDS011;22650;49.350;20.898;2023-03-01T00:40:14;66.57;;;25.50;;
36653;SDS011;22650;49.350;20.898;2023-03-01T00:42:47;64.53;;;25.60;;
36653;SDS011;22650;49.350;20.898;2023-03-01T00:45:21;65.80;;;24.75;;
36653;SDS011;22650;49.350;20.898;2023-03-01T00:47:55;62.95;;;23.95;;
36653;SDS011;22650;49.350;20.898;2023-03-01T00:50:28;77.35;;;27.00;;
36653;SDS011;22650;49.350;20.898;2023-03-01T00:53:02;63.78;;;24.63;;
36653;SDS011;22650;49.350;20.898;2023-03-01T00:55:38;65.65;;;25.10;;
36653;SDS011;22650;49.350;20.898;2023-03-01T00:58:11;66.55;;;25.45;;
36653;SDS011;22650;49.350;20.898;2023-03-01T01:00:45;72.45;;;25.60;;
36653;SDS011;22650;49.350;20.898;2023-03-01T01:03:19;70.85;;;26.30;;
36653;SDS011;22650;49.350;20.898;2023-03-01T01:05:53;66.70;;;25.58;;
36653;SDS011;22650;49.350;20.898;2023-03-01T01:08:26;64.78;;;25.33;;
36653;SDS011;22650;49.350;20.898;2023-03-01T01:11:01;72.43;;;25.02;;
36653;SDS011;22650;49.350;20.898;2023-03-01T01:13:35;68.18;;;25.15;;
36653;SDS011;22650;49.350;20.898;2023-03-01T01:16:09;64.80;;;24.92;;
36653;SDS011;22650;49.350;20.898;2023-03-01T01:18:43;64.95;;;25.70;;
36653;SDS011;22650;49.350;20.898;2023-03-01T01:21:17;67.03;;;25.20;;
36653;SDS011;22650;49.350;20.898;2023-03-01T01:23:53;67.53;;;25.30;;
36653;SDS011;22650;49.350;20.898;2023-03-01T01:26:29;65.80;;;24.75;;
36653;SDS011;22650;49.350;20.898;2023-03-01T01:29:04;72.90;;;25.50;;
36653;SDS011;22650;49.350;20.898;2023-03-01T01:31:39;65.35;;;24.40;;
36653;SDS011;22650;49.350;20.898;2023-03-01T01:34:14;53.05;;;21.58;;
36653;SDS011;22650;49.350;20.898;2023-03-01T01:36:49;59.55;;;24.23;;
36653;SDS011;22650;49.350;20.898;2023-03-01T01:39:25;64.75;;;23.45;;
36653;SDS011;22650;49.350;20.898;2023-03-01T01:42:00;65.22;;;25.23;;
36653;SDS011;22650;49.350;20.898;2023-03-01T01:44:34;70.00;;;23.48;;
36653;SDS011;22650;49.350;20.898;2023-03-01T01:47:11;65.00;;;25.60;;
36653;SDS011;22650;49.350;20.898;2023-03-01T01:49:48;61.78;;;23.20;;
36653;SDS011;22650;49.350;20.898;2023-03-01T01:52:24;63.25;;;23.17;;
36653;SDS011;22650;49.350;20.898;2023-03-01T01:55:01;73.85;;;26.23;;
36653;SDS011;22650;49.350;20.898;2023-03-01T01:57:40;60.40;;;23.13;;
36653;SDS011;22650;49.350;20.898;2023-03-01T02:00:18;59.90;;;23.67;;
36653;SDS011;22650;49.350;20.898;2023-03-01T02:02:55;61.83;;;23.88;;
36653;SDS011;22650;49.350;20.898;2023-03-01T02:05:33;61.45;;;22.10;;
36653;SDS011;22650;49.350;20.898;2023-03-01T02:08:11;65.00;;;23.85;;
36653;SDS011;22650;49.350;20.898;2023-03-01T02:10:48;56.95;;;22.63;;
36653;SDS011;22650;49.350;20.898;2023-03-01T02:13:24;59.47;;;21.95;;
36653;SDS011;22650;49.350;20.898;2023-03-01T02:15:58;49.35;;;19.77;;
36653;SDS011;22650;49.350;20.898;2023-03-01T02:18:34;52.67;;;20.27;;
36653;SDS011;22650;49.350;20.898;2023-03-01T02:21:12;49.88;;;20.90;;
36653;SDS011;22650;49.350;20.898;2023-03-01T02:24:13;50.40;;;19.38;;
36653;SDS011;22650;49.350;20.898;2023-03-01T02:26:55;54.90;;;21.00;;
36653;SDS011;22650;49.350;20.898;2023-03-01T02:29:31;47.50;;;18.30;;
36653;SDS011;22650;49.350;20.898;2023-03-01T02:32:05;51.20;;;20.98;;
36653;SDS011;22650;49.350;20.898;2023-03-01T02:34:39;48.50;;;19.73;;
36653;SDS011;22650;49.350;20.898;2023-03-01T02:37:13;44.97;;;17.98;;
36653;SDS011;22650;49.350;20.898;2023-03-01T02:39:53;46.97;;;19.45;;
36653;SDS011;22650;49.350;20.898;2023-03-01T02:42:31;51.10;;;18.92;;
36653;SDS011;22650;49.350;20.898;2023-03-01T02:45:11;54.55;;;21.10;;
36653;SDS011;22650;49.350;20.898;2023-03-01T02:47:44;45.95;;;18.40;;
36653;SDS011;22650;49.350;20.898;2023-03-01T02:50:22;46.80;;;17.65;;
36653;SDS011;22650;49.350;20.898;2023-03-01T02:53:09;41.30;;;17.67;;
36653;SDS011;22650;49.350;20.898;2023-03-01T02:55:45;41.58;;;16.52;;
36653;SDS011;22650;49.350;20.898;2023-03-01T02:58:19;48.83;;;17.25;;
36653;SDS011;22650;49.350;20.898;2023-03-01T03:00:55;41.03;;;17.23;;
36653;SDS011;22650;49.350;20.898;2023-03-01T03:03:32;45.67;;;17.63;;
36653;SDS011;22650;49.350;20.898;2023-03-01T03:06:06;41.33;;;16.10;;
36653;SDS011;22650;49.350;20.898;2023-03-01T03:08:40;48.38;;;17.33;;
36653;SDS011;22650;49.350;20.898;2023-03-01T03:11:13;52.50;;;17.00;;
36653;SDS011;22650;49.350;20.898;2023-03-01T03:13:47;42.35;;;17.70;;
36653;SDS011;22650;49.350;20.898;2023-03-01T03:16:23;37.38;;;15.23;;
36653;SDS011;22650;49.350;20.898;2023-03-01T03:18:57;38.97;;;15.27;;
36653;SDS011;22650;49.350;20.898;2023-03-01T03:21:36;45.60;;;17.08;;
36653;SDS011;22650;49.350;20.898;2023-03-01T03:24:10;33.25;;;14.98;;
36653;SDS011;22650;49.350;20.898;2023-03-01T03:26:44;34.50;;;15.45;;
36653;SDS011;22650;49.350;20.898;2023-03-01T03:29:17;47.28;;;16.98;;
36653;SDS011;22650;49.350;20.898;2023-03-01T03:31:52;48.85;;;17.95;;
36653;SDS011;22650;49.350;20.898;2023-03-01T03:34:26;43.42;;;16.98;;
36653;SDS011;22650;49.350;20.898;2023-03-01T03:36:59;44.42;;;15.82;;
36653;SDS011;22650;49.350;20.898;2023-03-01T03:39:32;47.45;;;16.45;;
36653;SDS011;22650;49.350;20.898;2023-03-01T03:42:06;44.88;;;16.63;;
36653;SDS011;22650;49.350;20.898;2023-03-01T03:44:41;40.50;;;16.55;;
36653;SDS011;22650;49.350;20.898;2023-03-01T03:47:16;36.85;;;16.75;;
36653;SDS011;22650;49.350;20.898;2023-03-01T03:49:50;41.63;;;16.77;;
36653;SDS011;22650;49.350;20.898;2023-03-01T03:52:23;38.65;;;15.02;;
36653;SDS011;22650;49.350;20.898;2023-03-01T03:54:57;40.47;;;15.25;;
36653;SDS011;22650;49.350;20.898;2023-03-01T03:57:30;44.58;;;15.95;;
36653;SDS011;22650;49.350;20.898;2023-03-01T04:00:04;38.55;;;17.92;;
36653;SDS011;22650;49.350;20.898;2023-03-01T04:02:47;37.75;;;15.05;;
36653;SDS011;22650;49.350;20.898;2023-03-01T04:05:21;41.70;;;16.42;;
36653;SDS011;22650;49.350;20.898;2023-03-01T04:07:55;43.17;;;17.42;;
36653;SDS011;22650;49.350;20.898;2023-03-01T04:10:39;43.58;;;16.13;;
36653;SDS011;22650;49.350;20.898;2023-03-01T04:13:15;41.72;;;15.65;;
36653;SDS011;22650;49.350;20.898;2023-03-01T04:15:51;43.47;;;16.30;;
36653;SDS011;22650;49.350;20.898;2023-03-01T04:18:27;46.20;;;16.42;;
36653;SDS011;22650;49.350;20.898;2023-03-01T04:21:00;41.88;;;15.55;;
36653;SDS011;22650;49.350;20.898;2023-03-01T04:23:34;34.50;;;14.05;;
36653;SDS011;22650;49.350;20.898;2023-03-01T04:26:07;39.55;;;15.95;;
36653;SDS011;22650;49.350;20.898;2023-03-01T04:28:41;39.30;;;16.65;;
36653;SDS011;22650;49.350;20.898;2023-03-01T04:31:17;34.13;;;14.80;;
36653;SDS011;22650;49.350;20.898;2023-03-01T04:33:55;40.53;;;13.85;;
36653;SDS011;22650;49.350;20.898;2023-03-01T04:36:28;42.30;;;15.00;;
36653;SDS011;22650;49.350;20.898;2023-03-01T04:39:03;32.67;;;14.23;;
36653;SDS011;22650;49.350;20.898;2023-03-01T04:41:43;41.58;;;13.02;;
36653;SDS011;22650;49.350;20.898;2023-03-01T04:44:17;36.28;;;14.68;;
36653;SDS011;22650;49.350;20.898;2023-03-01T04:46:52;38.47;;;15.63;;
36653;SDS011;22650;49.350;20.898;2023-03-01T04:49:27;35.03;;;15.52;;
36653;SDS011;22650;49.350;20.898;2023-03-01T04:52:01;35.70;;;14.50;;
36653;SDS011;22650;49.350;20.898;2023-03-01T04:54:35;37.75;;;13.38;;
36653;SDS011;22650;49.350;20.898;2023-03-01T04:57:08;41.60;;;14.82;;
36653;SDS011;22650;49.350;20.898;2023-03-01T04:59:42;33.95;;;13.68;;
36653;SDS011;22650;49.350;20.898;2023-03-01T05:02:15;30.40;;;13.73;;
36653;SDS011;22650;49.350;20.898;2023-03-01T05:04:50;34.50;;;12.68;;
36653;SDS011;22650;49.350;20.898;2023-03-01T05:07:23;36.10;;;13.80;;
36653;SDS011;22650;49.350;20.898;2023-03-01T05:09:57;31.85;;;12.70;;
36653;SDS011;22650;49.350;20.898;2023-03-01T05:12:31;36.08;;;14.88;;
36653;SDS011;22650;49.350;20.898;2023-03-01T05:15:05;25.35;;;13.35;;
36653;SDS011;22650;49.350;20.898;2023-03-01T05:17:39;34.90;;;14.98;;
36653;SDS011;22650;49.350;20.898;2023-03-01T05:22:49;39.60;;;15.73;;
36653;SDS011;22650;49.350;20.898;2023-03-01T05:25:23;33.72;;;14.05;;
36653;SDS011;22650;49.350;20.898;2023-03-01T05:27:57;41.20;;;15.48;;
36653;SDS011;22650;49.350;20.898;2023-03-01T05:30:34;36.03;;;14.30;;
36653;SDS011;22650;49.350;20.898;2023-03-01T05:33:10;38.30;;;14.88;;
36653;SDS011;22650;49.350;20.898;2023-03-01T05:35:47;43.22;;;15.55;;
36653;SDS011;22650;49.350;20.898;2023-03-01T05:38:21;43.38;;;16.25;;
36653;SDS011;22650;49.350;20.898;2023-03-01T05:40:55;36.88;;;13.48;;
36653;SDS011;22650;49.350;20.898;2023-03-01T05:43:29;36.97;;;13.77;;
36653;SDS011;22650;49.350;20.898;2023-03-01T05:46:05;34.65;;;12.85;;
36653;SDS011;22650;49.350;20.898;2023-03-01T05:48:39;29.17;;;12.70;;
36653;SDS011;22650;49.350;20.898;2023-03-01T05:51:14;33.42;;;13.82;;
36653;SDS011;22650;49.350;20.898;2023-03-01T05:53:47;35.40;;;15.55;;
36653;SDS011;22650;49.350;20.898;2023-03-01T05:56:20;42.90;;;18.30;;
36653;SDS011;22650;49.350;20.898;2023-03-01T05:58:55;43.42;;;16.52;;
36653;SDS011;22650;49.350;20.898;2023-03-01T06:01:28;40.40;;;18.42;;
36653;SDS011;22650;49.350;20.898;2023-03-01T06:04:02;43.00;;;18.17;;
36653;SDS011;22650;49.350;20.898;2023-03-01T06:06:37;39.92;;;17.50;;
36653;SDS011;22650;49.350;20.898;2023-03-01T06:09:11;35.97;;;16.27;;
36653;SDS011;22650;49.350;20.898;2023-03-01T06:11:44;41.42;;;14.70;;
36653;SDS011;22650;49.350;20.898;2023-03-01T06:14:18;41.50;;;15.88;;
36653;SDS011;22650;49.350;20.898;2023-03-01T06:16:52;47.03;;;16.10;;
36653;SDS011;22650;49.350;20.898;2023-03-01T06:19:25;45.20;;;17.20;;
36653;SDS011;22650;49.350;20.898;2023-03-01T06:22:00;31.77;;;14.82;;
36653;SDS011;22650;49.350;20.898;2023-03-01T06:24:34;44.92;;;16.85;;
36653;SDS011;22650;49.350;20.898;2023-03-01T06:27:07;34.88;;;15.52;;
36653;SDS011;22650;49.350;20.898;2023-03-01T06:29:41;38.35;;;14.98;;
36653;SDS011;22650;49.350;20.898;2023-03-01T06:32:15;37.65;;;15.55;;
36653;SDS011;22650;49.350;20.898;2023-03-01T06:34:49;40.60;;;14.98;;
36653;SDS011;22650;49.350;20.898;2023-03-01T06:37:24;43.03;;;18.20;;
36653;SDS011;22650;49.350;20.898;2023-03-01T06:39:57;47.72;;;19.58;;
36653;SDS011;22650;49.350;20.898;2023-03-01T06:42:31;46.25;;;18.15;;
36653;SDS011;22650;49.350;20.898;2023-03-01T06:45:05;42.45;;;15.98;;
36653;SDS011;22650;49.350;20.898;2023-03-01T06:47:40;40.75;;;13.73;;
36653;SDS011;22650;49.350;20.898;2023-03-01T06:50:13;39.95;;;15.05;;
36653;SDS011;22650;49.350;20.898;2023-03-01T06:52:50;34.92;;;14.77;;
36653;SDS011;22650;49.350;20.898;2023-03-01T06:55:28;42.75;;;17.50;;
36653;SDS011;22650;49.350;20.898;2023-03-01T06:58:02;73.00;;;27.33;;
36653;SDS011;22650;49.350;20.898;2023-03-01T07:00:36;68.63;;;26.65;;
36653;SDS011;22650;49.350;20.898;2023-03-01T07:03:12;60.83;;;22.60;;
36653;SDS011;22650;49.350;20.898;2023-03-01T07:05:48;49.22;;;22.10;;
36653;SDS011;22650;49.350;20.898;2023-03-01T07:08:24;44.40;;;19.35;;
36653;SDS011;22650;49.350;20.898;2023-03-01T07:10:58;43.03;;;17.58;;
36653;SDS011;22650;49.350;20.898;2023-03-01T07:13:33;38.25;;;15.27;;
36653;SDS011;22650;49.350;20.898;2023-03-01T07:16:07;41.25;;;14.65;;
36653;SDS011;22650;49.350;20.898;2023-03-01T07:18:41;36.65;;;15.70;;
36653;SDS011;22650;49.350;20.898;2023-03-01T07:21:14;35.05;;;13.27;;
36653;SDS011;22650;49.350;20.898;2023-03-01T07:23:50;43.47;;;15.60;;
36653;SDS011;22650;49.350;20.898;2023-03-01T07:26:24;33.42;;;13.30;;
36653;SDS011;22650;49.350;20.898;2023-03-01T07:28:58;35.63;;;14.15;;
36653;SDS011;22650;49.350;20.898;2023-03-01T07:31:32;28.90;;;12.30;;
36653;SDS011;22650;49.350;20.898;2023-03-01T07:34:07;31.75;;;13.73;;
36653;SDS011;22650;49.350;20.898;2023-03-01T07:36:40;32.35;;;12.27;;
36653;SDS011;22650;49.350;20.898;2023-03-01T07:39:16;30.83;;;12.00;;
36653;SDS011;22650;49.350;20.898;2023-03-01T07:41:50;35.15;;;13.88;;
36653;SDS011;22650;49.350;20.898;2023-03-01T07:44:26;31.10;;;12.43;;
36653;SDS011;22650;49.350;20.898;2023-03-01T07:47:00;32.10;;;12.75;;
36653;SDS011;22650;49.350;20.898;2023-03-01T07:49:33;29.45;;;12.02;;
36653;SDS011;22650;49.350;20.898;2023-03-01T07:52:09;41.47;;;13.05;;
36653;SDS011;22650;49.350;20.898;2023-03-01T07:54:44;31.40;;;13.07;;
36653;SDS011;22650;49.350;20.898;2023-03-01T07:57:18;33.78;;;13.73;;
36653;SDS011;22650;49.350;20.898;2023-03-01T07:59:52;28.95;;;12.32;;
36653;SDS011;22650;49.350;20.898;2023-03-01T08:02:25;36.40;;;12.85;;
36653;SDS011;22650;49.350;20.898;2023-03-01T08:04:59;27.27;;;12.30;;
36653;SDS011;22650;49.350;20.898;2023-03-01T08:07:32;28.65;;;12.02;;
36653;SDS011;22650;49.350;20.898;2023-03-01T08:10:08;25.10;;;9.73;;
36653;SDS011;22650;49.350;20.898;2023-03-01T08:12:42;29.65;;;12.23;;
36653;SDS011;22650;49.350;20.898;2023-03-01T08:15:16;29.70;;;11.60;;
36653;SDS011;22650;49.350;20.898;2023-03-01T08:17:50;27.10;;;13.70;;
36653;SDS011;22650;49.350;20.898;2023-03-01T08:20:23;19.58;;;9.68;;
36653;SDS011;22650;49.350;20.898;2023-03-01T08:22:57;27.02;;;9.77;;
36653;SDS011;22650;49.350;20.898;2023-03-01T08:25:32;22.50;;;10.52;;
36653;SDS011;22650;49.350;20.898;2023-03-01T08:28:06;22.50;;;10.02;;
36653;SDS011;22650;49.350;20.898;2023-03-01T08:30:39;21.67;;;8.23;;
36653;SDS011;22650;49.350;20.898;2023-03-01T08:33:13;14.55;;;7.18;;
36653;SDS011;22650;49.350;20.898;2023-03-01T08:35:46;16.83;;;7.07;;
36653;SDS011;22650;49.350;20.898;2023-03-01T08:38:20;15.25;;;6.85;;
36653;SDS011;22650;49.350;20.898;2023-03-01T08:40:55;16.52;;;7.30;;
36653;SDS011;22650;49.350;20.898;2023-03-01T08:43:32;16.27;;;7.35;;
36653;SDS011;22650;49.350;20.898;2023-03-01T08:46:06;15.63;;;7.68;;
36653;SDS011;22650;49.350;20.898;2023-03-01T08:48:40;16.25;;;6.40;;
36653;SDS011;22650;49.350;20.898;2023-03-01T08:51:15;14.48;;;6.93;;
36653;SDS011;22650;49.350;20.898;2023-03-01T08:53:50;12.93;;;5.05;;
36653;SDS011;22650;49.350;20.898;2023-03-01T08:56:25;11.57;;;5.88;;
36653;SDS011;22650;49.350;20.898;2023-03-01T08:58:59;11.82;;;5.55;;
36653;SDS011;22650;49.350;20.898;2023-03-01T09:01:33;11.65;;;5.68;;
36653;SDS011;22650;49.350;20.898;2023-03-01T09:04:07;12.35;;;6.13;;
36653;SDS011;22650;49.350;20.898;2023-03-01T09:06:41;10.80;;;4.93;;
36653;SDS011;22650;49.350;20.898;2023-03-01T09:09:15;10.10;;;4.85;;
36653;SDS011;22650;49.350;20.898;2023-03-01T09:11:51;8.85;;;5.65;;
36653;SDS011;22650;49.350;20.898;2023-03-01T09:14:25;12.27;;;5.90;;
36653;SDS011;22650;49.350;20.898;2023-03-01T09:16:58;11.32;;;5.68;;
36653;SDS011;22650;49.350;20.898;2023-03-01T09:19:34;9.02;;;4.63;;
36653;SDS011;22650;49.350;20.898;2023-03-01T09:22:08;12.48;;;5.25;;
36653;SDS011;22650;49.350;20.898;2023-03-01T09:24:42;15.43;;;5.32;;
36653;SDS011;22650;49.350;20.898;2023-03-01T09:27:16;9.32;;;3.97;;
36653;SDS011;22650;49.350;20.898;2023-03-01T09:29:50;8.98;;;4.28;;
36653;SDS011;22650;49.350;20.898;2023-03-01T09:32:24;8.95;;;4.93;;
36653;SDS011;22650;49.350;20.898;2023-03-01T09:34:57;8.48;;;5.10;;
36653;SDS011;22650;49.350;20.898;2023-03-01T09:37:36;9.32;;;5.03;;
36653;SDS011;22650;49.350;20.898;2023-03-01T09:40:12;10.85;;;5.18;;
36653;SDS011;22650;49.350;20.898;2023-03-01T09:42:51;11.55;;;5.15;;
36653;SDS011;22650;49.350;20.898;2023-03-01T09:45:29;9.40;;;4.63;;
36653;SDS011;22650;49.350;20.898;2023-03-01T09:48:09;11.63;;;5.38;;
36653;SDS011;22650;49.350;20.898;2023-03-01T09:50:49;11.82;;;5.88;;
36653;SDS011;22650;49.350;20.898;2023-03-01T09:53:24;16.50;;;5.78;;
36653;SDS011;22650;49.350;20.898;2023-03-01T09:56:05;12.35;;;5.13;;
36653;SDS011;22650;49.350;20.898;2023-03-01T09:58:49;9.82;;;5.20;;
36653;SDS011;22650;49.350;20.898;2023-03-01T10:01:29;10.05;;;5.53;;
36653;SDS011;22650;49.350;20.898;2023-03-01T10:04:12;13.65;;;6.32;;
36653;SDS011;22650;49.350;20.898;2023-03-01T10:07:07;14.25;;;6.75;;
36653;SDS011;22650;49.350;20.898;2023-03-01T10:10:03;10.43;;;5.85;;
36653;SDS011;22650;49.350;20.898;2023-03-01T10:12:39;10.90;;;4.53;;
36653;SDS011;22650;49.350;20.898;2023-03-01T10:15:16;10.48;;;5.47;;
36653;SDS011;22650;49.350;20.898;2023-03-01T10:17:55;14.32;;;5.55;;
36653;SDS011;22650;49.350;20.898;2023-03-01T10:20:33;12.90;;;6.13;;
36653;SDS011;22650;49.350;20.898;2023-03-01T10:23:16;12.10;;;4.85;;
36653;SDS011;22650;49.350;20.898;2023-03-01T10:26:07;14.10;;;5.00;;
36653;SDS011;22650;49.350;20.898;2023-03-01T10:28:53;8.52;;;5.35;;
36653;SDS011;22650;49.350;20.898;2023-03-01T10:31:38;9.85;;;5.20;;
36653;SDS011;22650;49.350;20.898;2023-03-01T10:34:15;10.63;;;5.47;;
36653;SDS011;22650;49.350;20.898;2023-03-01T10:36:50;14.43;;;5.55;;
36653;SDS011;22650;49.350;20.898;2023-03-01T10:39:28;11.98;;;5.32;;
36653;SDS011;22650;49.350;20.898;2023-03-01T10:42:02;10.88;;;5.07;;
36653;SDS011;22650;49.350;20.898;2023-03-01T10:44:38;10.30;;;5.15;;
36653;SDS011;22650;49.350;20.898;2023-03-01T10:47:20;12.15;;;4.40;;
36653;SDS011;22650;49.350;20.898;2023-03-01T10:49:57;12.65;;;5.18;;
36653;SDS011;22650;49.350;20.898;2023-03-01T10:52:33;8.50;;;4.53;;
36653;SDS011;22650;49.350;20.898;2023-03-01T10:55:21;7.70;;;4.95;;
36653;SDS011;22650;49.350;20.898;2023-03-01T10:58:11;4.78;;;2.50;;
36653;SDS011;22650;49.350;20.898;2023-03-01T11:00:51;13.95;;;3.38;;
36653;SDS011;22650;49.350;20.898;2023-03-01T11:03:29;4.72;;;2.97;;
36653;SDS011;22650;49.350;20.898;2023-03-01T11:06:06;6.03;;;2.97;;
36653;SDS011;22650;49.350;20.898;2023-03-01T11:08:55;5.50;;;2.58;;
36653;SDS011;22650;49.350;20.898;2023-03-01T11:11:30;4.88;;;2.45;;
36653;SDS011;22650;49.350;20.898;2023-03-01T11:14:06;5.03;;;1.98;;
36653;SDS011;22650;49.350;20.898;2023-03-01T11:16:58;7.82;;;2.13;;
36653;SDS011;22650;49.350;20.898;2023-03-01T11:19:35;7.53;;;2.90;;
36653;SDS011;22650;49.350;20.898;2023-03-01T11:22:11;4.82;;;2.28;;
36653;SDS011;22650;49.350;20.898;2023-03-01T11:24:47;5.55;;;2.08;;
36653;SDS011;22650;49.350;20.898;2023-03-01T11:27:40;9.40;;;2.60;;
36653;SDS011;22650;49.350;20.898;2023-03-01T11:30:18;4.18;;;1.73;;
36653;SDS011;22650;49.350;20.898;2023-03-01T11:33:00;5.07;;;2.03;;
36653;SDS011;22650;49.350;20.898;2023-03-01T11:35:47;1.67;;;1.15;;
36653;SDS011;22650;49.350;20.898;2023-03-01T11:38:28;2.88;;;1.73;;
36653;SDS011;22650;49.350;20.898;2023-03-01T11:41:06;3.78;;;1.98;;
36653;SDS011;22650;49.350;20.898;2023-03-01T11:43:44;6.60;;;3.03;;
36653;SDS011;22650;49.350;20.898;2023-03-01T11:49:33;7.03;;;3.42;;
36653;SDS011;22650;49.350;20.898;2023-03-01T11:52:28;7.53;;;3.28;;
36653;SDS011;22650;49.350;20.898;2023-03-01T11:55:14;7.60;;;3.35;;
36653;SDS011;22650;49.350;20.898;2023-03-01T11:58:05;6.05;;;3.05;;
36653;SDS011;22650;49.350;20.898;2023-03-01T12:01:00;5.55;;;3.10;;
36653;SDS011;22650;49.350;20.898;2023-03-01T12:03:46;6.22;;;2.72;;
36653;SDS011;22650;49.350;20.898;2023-03-01T12:06:38;5.13;;;2.83;;
36653;SDS011;22650;49.350;20.898;2023-03-01T12:09:25;8.95;;;4.18;;
36653;SDS011;22650;49.350;20.898;2023-03-01T12:12:30;6.78;;;3.70;;
36653;SDS011;22650;49.350;20.898;2023-03-01T12:15:29;4.97;;;2.92;;
36653;SDS011;22650;49.350;20.898;2023-03-01T12:18:32;5.70;;;3.53;;
36653;SDS011;22650;49.350;20.898;2023-03-01T12:21:21;6.60;;;3.27;;
36653;SDS011;22650;49.350;20.898;2023-03-01T12:24:10;6.70;;;3.70;;
36653;SDS011;22650;49.350;20.898;2023-03-01T12:27:03;8.15;;;4.90;;
36653;SDS011;22650;49.350;20.898;2023-03-01T12:29:54;10.93;;;4.20;;
36653;SDS011;22650;49.350;20.898;2023-03-01T12:32:40;12.98;;;5.32;;
36653;SDS011;22650;49.350;20.898;2023-03-01T12:35:23;8.65;;;5.03;;
36653;SDS011;22650;49.350;20.898;2023-03-01T12:38:20;12.07;;;5.80;;
36653;SDS011;22650;49.350;20.898;2023-03-01T12:41:11;16.38;;;6.00;;
36653;SDS011;22650;49.350;20.898;2023-03-01T12:44:04;10.18;;;5.38;;
36653;SDS011;22650;49.350;20.898;2023-03-01T12:46:59;12.40;;;5.63;;
36653;SDS011;22650;49.350;20.898;2023-03-01T12:49:40;10.23;;;5.97;;
36653;SDS011;22650;49.350;20.898;2023-03-01T12:52:19;11.43;;;6.20;;
36653;SDS011;22650;49.350;20.898;2023-03-01T12:54:57;8.40;;;4.55;;
36653;SDS011;22650;49.350;20.898;2023-03-01T12:57:35;11.00;;;5.55;;
36653;SDS011;22650;49.350;20.898;2023-03-01T13:00:21;11.60;;;5.53;;
36653;SDS011;22650;49.350;20.898;2023-03-01T13:03:01;10.95;;;5.20;;
36653;SDS011;22650;49.350;20.898;2023-03-01T13:05:46;14.57;;;5.65;;
36653;SDS011;22650;49.350;20.898;2023-03-01T13:08:36;12.65;;;6.47;;
36653;SDS011;22650;49.350;20.898;2023-03-01T13:11:17;8.35;;;5.47;;
36653;SDS011;22650;49.350;20.898;2023-03-01T13:13:57;15.70;;;7.35;;
36653;SDS011;22650;49.350;20.898;2023-03-01T13:17:20;16.00;;;6.60;;
36653;SDS011;22650;49.350;20.898;2023-03-01T13:20:11;9.35;;;5.53;;
36653;SDS011;22650;49.350;20.898;2023-03-01T13:22:57;13.55;;;5.93;;
36653;SDS011;22650;49.350;20.898;2023-03-01T13:25:34;8.90;;;4.90;;
36653;SDS011;22650;49.350;20.898;2023-03-01T13:28:38;12.93;;;6.15;;
36653;SDS011;22650;49.350;20.898;2023-03-01T13:37:29;13.50;;;6.28;;
36653;SDS011;22650;49.350;20.898;2023-03-01T13:43:30;11.82;;;5.38;;
36653;SDS011;22650;49.350;20.898;2023-03-01T13:46:08;12.25;;;6.05;;
36653;SDS011;22650;49.350;20.898;2023-03-01T13:51:25;12.70;;;5.40;;
36653;SDS011;22650;49.350;20.898;2023-03-01T13:54:00;6.82;;;4.47;;
36653;SDS011;22650;49.350;20.898;2023-03-01T13:56:35;7.30;;;4.22;;
36653;SDS011;22650;49.350;20.898;2023-03-01T13:59:13;10.82;;;4.30;;
36653;SDS011;22650;49.350;20.898;2023-03-01T14:01:51;22.65;;;4.20;;
36653;SDS011;22650;49.350;20.898;2023-03-01T14:04:26;7.32;;;3.83;;
36653;SDS011;22650;49.350;20.898;2023-03-01T14:07:11;7.95;;;4.03;;
36653;SDS011;22650;49.350;20.898;2023-03-01T14:12:23;8.93;;;4.38;;
36653;SDS011;22650;49.350;20.898;2023-03-01T14:15:08;9.13;;;4.10;;
36653;SDS011;22650;49.350;20.898;2023-03-01T14:17:52;8.25;;;4.68;;
36653;SDS011;22650;49.350;20.898;2023-03-01T14:20:33;10.93;;;4.32;;
36653;SDS011;22650;49.350;20.898;2023-03-01T14:23:14;7.95;;;5.35;;
36653;SDS011;22650;49.350;20.898;2023-03-01T14:25:51;10.48;;;5.18;;
36653;SDS011;22650;49.350;20.898;2023-03-01T14:28:27;12.38;;;6.28;;
36653;SDS011;22650;49.350;20.898;2023-03-01T14:34:23;13.25;;;5.07;;
36653;SDS011;22650;49.350;20.898;2023-03-01T14:36:58;13.85;;;5.60;;
36653;SDS011;22650;49.350;20.898;2023-03-01T14:39:44;11.40;;;4.60;;
36653;SDS011;22650;49.350;20.898;2023-03-01T14:42:18;13.23;;;6.78;;
36653;SDS011;22650;49.350;20.898;2023-03-01T14:44:54;16.63;;;7.60;;
36653;SDS011;22650;49.350;20.898;2023-03-01T14:47:29;14.88;;;7.22;;
36653;SDS011;22650;49.350;20.898;2023-03-01T14:50:07;16.80;;;8.05;;
36653;SDS011;22650;49.350;20.898;2023-03-01T14:52:48;27.67;;;10.00;;
36653;SDS011;22650;49.350;20.898;2023-03-01T14:55:31;26.20;;;10.07;;
36653;SDS011;22650;49.350;20.898;2023-03-01T14:58:09;21.00;;;8.45;;
36653;SDS011;22650;49.350;20.898;2023-03-01T15:00:47;23.88;;;12.05;;
36653;SDS011;22650;49.350;20.898;2023-03-01T15:03:26;16.42;;;7.07;;
36653;SDS011;22650;49.350;20.898;2023-03-01T15:06:04;13.65;;;6.80;;
36653;SDS011;22650;49.350;20.898;2023-03-01T15:08:41;17.13;;;7.65;;
36653;SDS011;22650;49.350;20.898;2023-03-01T15:11:20;16.15;;;7.63;;
36653;SDS011;22650;49.350;20.898;2023-03-01T15:13:56;13.25;;;6.95;;
36653;SDS011;22650;49.350;20.898;2023-03-01T15:16:31;12.98;;;6.55;;
36653;SDS011;22650;49.350;20.898;2023-03-01T15:19:06;16.13;;;8.20;;
36653;SDS011;22650;49.350;20.898;2023-03-01T15:21:40;19.35;;;7.00;;
36653;SDS011;22650;49.350;20.898;2023-03-01T15:24:20;13.98;;;7.38;;
36653;SDS011;22650;49.350;20.898;2023-03-01T15:26:58;25.65;;;11.23;;
36653;SDS011;22650;49.350;20.898;2023-03-01T15:29:38;23.70;;;10.77;;
36653;SDS011;22650;49.350;20.898;2023-03-01T15:32:23;18.38;;;9.45;;
36653;SDS011;22650;49.350;20.898;2023-03-01T15:35:01;15.63;;;7.65;;
36653;SDS011;22650;49.350;20.898;2023-03-01T15:41:22;25.50;;;12.43;;
36653;SDS011;22650;49.350;20.898;2023-03-01T15:43:59;22.63;;;10.68;;